sensor_id;sensor_type;location;lat;lon;timestamp;pressure;altitude;pressure_sealevel;temperature;humidity
73316;BME280;61545;53.726;-0.444;2024-02-04T00:01:19;1018.3;;;6.8;100.0
73316;BME280;61545;53.726;-0.444;2024-02-04T00:06:19;1018.5;;;6.8;100.0
73316;BME280;61545;53.726;-0.444;2024-02-04T00:11:19;1018.5;;;7.0;100.0
73316;BME280;61545;53.726;-0.444;2024-02-04T00:16:19;1018.4;;;7.0;100.0
73316;BME280;61545;53.726;-0.444;2024-02-04T00:21:19;1018.3;;;7.1;100.0
73316;BME280;61545;53.726;-0.444;2024-02-04T00:26:19;1018.2;;;7.1;100.0
73316;BME280;61545;53.726;-0.444;2024-02-04T00:31:19;1018.2;;;7.2;100.0
73316;BME280;61545;53.726;-0.444;2024-02-04T00:36:19;1018.3;;;7.2;100.0
73316;BME280;61545;53.726;-0.444;2024-02-04T00:41:19;1018.3;;;7.3;100.0
73316;BME280;61545;53.726;-0.444;2024-02-04T00:46:19;1018.2;;;7.3;100.0
73316;BME280;61545;53.726;-0.444;2024-02-04T00:51:19;1018.3;;;7.3;100.0
73316;BME280;61545;53.726;-0.444;2024-02-04T00:56:19;1018.2;;;7.3;100.0
73316;BME280;61545;53.726;-0.444;2024-02-04T01:01:19;1018.4;;;7.4;100.0
73316;BME280;61545;53.726;-0.444;2024-02-04T01:06:19;1018.2;;;7.5;100.0
73316;BME280;61545;53.726;-0.444;2024-02-04T01:11:19;1018.4;;;7.5;100.0
73316;BME280;61545;53.726;-0.444;2024-02-04T01:16:19;1018.5;;;7.5;100.0
73316;BME280;61545;53.726;-0.444;2024-02-04T01:21:19;1018.3;;;7.4;100.0
73316;BME280;61545;53.726;-0.444;2024-02-04T01:26:19;1018.2;;;7.5;100.0
73316;BME280;61545;53.726;-0.444;2024-02-04T01:31:19;1018.4;;;7.6;100.0
73316;BME280;61545;53.726;-0.444;2024-02-04T01:36:19;1018.5;;;7.5;100.0
73316;BME280;61545;53.726;-0.444;2024-02-04T01:41:19;1018.3;;;7.6;100.0
73316;BME280;61545;53.726;-0.444;2024-02-04T01:46:19;1018.4;;;7.5;100.0
73316;BME280;61545;53.726;-0.444;2024-02-04T01:51:19;1018.5;;;7.5;100.0
73316;BME280;61545;53.726;-0.444;2024-02-04T01:56:19;1018.4;;;7.5;100.0
73316;BME280;61545;53.726;-0.444;2024-02-04T02:01:19;1018.2;;;7.6;100.0
73316;BME280;61545;53.726;-0.444;2024-02-04T02:06:19;1018.0;;;7.6;100.0
73316;BME280;61545;53.726;-0.444;2024-02-04T02:11:21;1017.9;;;7.6;100.0
73316;BME280;61545;53.726;-0.444;2024-02-04T02:16:19;1018.0;;;7.7;100.0
73316;BME280;61545;53.726;-0.444;2024-02-04T02:21:26;1017.9;;;7.7;100.0
73316;BME280;61545;53.726;-0.444;2024-02-04T02:26:19;1018.0;;;7.7;100.0
73316;BME280;61545;53.726;-0.444;2024-02-04T02:31:19;1017.9;;;7.7;100.0
73316;BME280;61545;53.726;-0.444;2024-02-04T02:36:21;1017.9;;;7.7;100.0
73316;BME280;61545;53.726;-0.444;2024-02-04T02:41:19;1018.0;;;7.7;100.0
73316;BME280;61545;53.726;-0.444;2024-02-04T02:46:19;1017.6;;;7.7;100.0
73316;BME280;61545;53.726;-0.444;2024-02-04T02:51:19;1017.7;;;7.7;100.0
73316;BME280;61545;53.726;-0.444;2024-02-04T02:56:19;1017.4;;;7.7;100.0
73316;BME280;61545;53.726;-0.444;2024-02-04T03:01:19;1017.3;;;7.7;100.0
73316;BME280;61545;53.726;-0.444;2024-02-04T03:06:19;1017.4;;;7.7;100.0
73316;BME280;61545;53.726;-0.444;2024-02-04T03:11:19;1017.3;;;7.7;100.0
73316;BME280;61545;53.726;-0.444;2024-02-04T03:16:19;1017.5;;;7.7;100.0
73316;BME280;61545;53.726;-0.444;2024-02-04T03:21:19;1017.6;;;7.8;100.0
73316;BME280;61545;53.726;-0.444;2024-02-04T03:26:19;1017.5;;;7.8;100.0
73316;BME280;61545;53.726;-0.444;2024-02-04T03:31:19;1017.6;;;7.8;100.0
73316;BME280;61545;53.726;-0.444;2024-02-04T03:36:20;1017.6;;;7.8;100.0
73316;BME280;61545;53.726;-0.444;2024-02-04T03:41:19;1017.5;;;7.8;100.0
73316;BME280;61545;53.726;-0.444;2024-02-04T03:46:19;1017.5;;;7.8;100.0
73316;BME280;61545;53.726;-0.444;2024-02-04T03:51:19;1017.4;;;7.8;100.0
73316;BME280;61545;53.726;-0.444;2024-02-04T03:56:19;1017.4;;;7.7;100.0
73316;BME280;61545;53.726;-0.444;2024-02-04T04:01:19;1017.3;;;7.7;100.0
73316;BME280;61545;53.726;-0.444;2024-02-04T04:06:19;1017.1;;;7.7;100.0
73316;BME280;61545;53.726;-0.444;2024-02-04T04:11:19;1017.1;;;7.7;100.0
73316;BME280;61545;53.726;-0.444;2024-02-04T04:16:20;1017.0;;;7.8;100.0
73316;BME280;61545;53.726;-0.444;2024-02-04T04:21:19;1016.9;;;7.7;100.0
73316;BME280;61545;53.726;-0.444;2024-02-04T04:26:19;1016.6;;;7.7;100.0
73316;BME280;61545;53.726;-0.444;2024-02-04T04:31:19;1016.5;;;7.7;100.0
73316;BME280;61545;53.726;-0.444;2024-02-04T04:36:19;1016.4;;;7.6;100.0
73316;BME280;61545;53.726;-0.444;2024-02-04T04:41:19;1016.3;;;7.6;100.0
73316;BME280;61545;53.726;-0.444;2024-02-04T04:46:19;1016.6;;;7.6;100.0
73316;BME280;61545;53.726;-0.444;2024-02-04T04:51:19;1016.7;;;7.5;100.0
73316;BME280;61545;53.726;-0.444;2024-02-04T04:56:19;1016.7;;;7.5;100.0
73316;BME280;61545;53.726;-0.444;2024-02-04T05:01:19;1016.7;;;7.5;100.0
73316;BME280;61545;53.726;-0.444;2024-02-04T05:06:19;1016.8;;;7.5;100.0
73316;BME280;61545;53.726;-0.444;2024-02-04T05:11:19;1016.8;;;7.5;100.0
73316;BME280;61545;53.726;-0.444;2024-02-04T05:16:19;1016.7;;;7.6;100.0
73316;BME280;61545;53.726;-0.444;2024-02-04T05:21:19;1016.6;;;7.5;100.0
73316;BME280;61545;53.726;-0.444;2024-02-04T05:26:19;1016.7;;;7.5;100.0
73316;BME280;61545;53.726;-0.444;2024-02-04T05:31:19;1016.8;;;7.5;100.0
73316;BME280;61545;53.726;-0.444;2024-02-04T05:36:19;1016.8;;;7.5;100.0
73316;BME280;61545;53.726;-0.444;2024-02-04T05:41:19;1016.6;;;7.4;100.0
73316;BME280;61545;53.726;-0.444;2024-02-04T05:46:19;1016.6;;;7.5;100.0
73316;BME280;61545;53.726;-0.444;2024-02-04T05:51:19;1016.3;;;7.4;100.0
73316;BME280;61545;53.726;-0.444;2024-02-04T05:56:19;1016.2;;;7.5;100.0
73316;BME280;61545;53.726;-0.444;2024-02-04T06:01:19;1016.2;;;7.4;100.0
73316;BME280;61545;53.726;-0.444;2024-02-04T06:06:19;1016.2;;;7.3;100.0
73316;BME280;61545;53.726;-0.444;2024-02-04T06:11:19;1016.1;;;7.3;100.0
73316;BME280;61545;53.726;-0.444;2024-02-04T06:16:19;1015.8;;;7.3;100.0
73316;BME280;61545;53.726;-0.444;2024-02-04T06:21:19;1016.0;;;7.3;100.0
73316;BME280;61545;53.726;-0.444;2024-02-04T06:26:19;1015.9;;;7.4;100.0
73316;BME280;61545;53.726;-0.444;2024-02-04T06:31:19;1015.9;;;7.4;100.0
73316;BME280;61545;53.726;-0.444;2024-02-04T06:36:19;1016.0;;;7.5;100.0
73316;BME280;61545;53.726;-0.444;2024-02-04T06:41:19;1016.0;;;7.5;100.0
73316;BME280;61545;53.726;-0.444;2024-02-04T06:46:25;1016.0;;;7.5;100.0
73316;BME280;61545;53.726;-0.444;2024-02-04T06:51:19;1015.8;;;7.5;100.0
73316;BME280;61545;53.726;-0.444;2024-02-04T06:56:19;1015.8;;;7.5;100.0
73316;BME280;61545;53.726;-0.444;2024-02-04T07:01:19;1015.9;;;7.5;100.0
73316;BME280;61545;53.726;-0.444;2024-02-04T07:06:19;1015.8;;;7.4;100.0
73316;BME280;61545;53.726;-0.444;2024-02-04T07:11:19;1015.7;;;7.5;100.0
73316;BME280;61545;53.726;-0.444;2024-02-04T07:16:19;1015.7;;;7.5;100.0
73316;BME280;61545;53.726;-0.444;2024-02-04T07:21:19;1015.6;;;7.5;100.0
73316;BME280;61545;53.726;-0.444;2024-02-04T07:26:19;1015.6;;;7.5;100.0
73316;BME280;61545;53.726;-0.444;2024-02-04T07:31:19;1015.6;;;7.5;100.0
73316;BME280;61545;53.726;-0.444;2024-02-04T07:36:19;1015.6;;;7.7;100.0
73316;BME280;61545;53.726;-0.444;2024-02-04T07:41:19;1015.6;;;7.7;100.0
73316;BME280;61545;53.726;-0.444;2024-02-04T07:46:19;1015.6;;;7.7;100.0
73316;BME280;61545;53.726;-0.444;2024-02-04T07:51:19;1015.6;;;7.7;100.0
73316;BME280;61545;53.726;-0.444;2024-02-04T07:56:19;1015.5;;;7.8;100.0
73316;BME280;61545;53.726;-0.444;2024-02-04T08:01:19;1015.5;;;7.8;100.0
73316;BME280;61545;53.726;-0.444;2024-02-04T08:06:19;1015.5;;;7.8;100.0
73316;BME280;61545;53.726;-0.444;2024-02-04T08:11:20;1015.5;;;7.8;100.0
73316;BME280;61545;53.726;-0.444;2024-02-04T08:16:19;1015.5;;;7.8;100.0
73316;BME280;61545;53.726;-0.444;2024-02-04T08:21:19;1015.4;;;7.9;100.0
73316;BME280;61545;53.726;-0.444;2024-02-04T08:26:19;1015.2;;;7.9;100.0
73316;BME280;61545;53.726;-0.444;2024-02-04T08:31:19;1015.3;;;7.9;100.0
73316;BME280;61545;53.726;-0.444;2024-02-04T08:36:19;1015.4;;;8.0;100.0
73316;BME280;61545;53.726;-0.444;2024-02-04T08:41:19;1015.4;;;8.0;100.0
73316;BME280;61545;53.726;-0.444;2024-02-04T08:46:19;1015.3;;;8.0;100.0
73316;BME280;61545;53.726;-0.444;2024-02-04T08:51:19;1015.2;;;8.2;100.0
73316;BME280;61545;53.726;-0.444;2024-02-04T08:56:19;1015.4;;;8.2;100.0
73316;BME280;61545;53.726;-0.444;2024-02-04T09:01:19;1015.3;;;8.3;100.0
73316;BME280;61545;53.726;-0.444;2024-02-04T09:06:19;1015.3;;;8.3;100.0
73316;BME280;61545;53.726;-0.444;2024-02-04T09:11:19;1015.4;;;8.4;100.0
73316;BME280;61545;53.726;-0.444;2024-02-04T09:16:19;1015.4;;;8.4;100.0
73316;BME280;61545;53.726;-0.444;2024-02-04T09:21:19;1015.4;;;8.4;100.0
73316;BME280;61545;53.726;-0.444;2024-02-04T09:26:19;1015.4;;;8.5;100.0
73316;BME280;61545;53.726;-0.444;2024-02-04T09:31:19;1015.3;;;8.5;100.0
73316;BME280;61545;53.726;-0.444;2024-02-04T09:36:19;1015.3;;;8.5;100.0
73316;BME280;61545;53.726;-0.444;2024-02-04T09:41:19;1015.1;;;8.6;100.0
73316;BME280;61545;53.726;-0.444;2024-02-04T09:46:19;1015.2;;;8.6;100.0
73316;BME280;61545;53.726;-0.444;2024-02-04T09:51:19;1015.1;;;8.7;100.0
73316;BME280;61545;53.726;-0.444;2024-02-04T09:56:19;1015.0;;;8.7;100.0
73316;BME280;61545;53.726;-0.444;2024-02-04T10:01:19;1015.0;;;8.7;100.0
73316;BME280;61545;53.726;-0.444;2024-02-04T10:06:19;1015.0;;;8.8;100.0
73316;BME280;61545;53.726;-0.444;2024-02-04T10:11:19;1015.1;;;8.9;100.0
73316;BME280;61545;53.726;-0.444;2024-02-04T10:16:19;1015.1;;;8.9;100.0
73316;BME280;61545;53.726;-0.444;2024-02-04T10:21:20;1015.0;;;8.9;100.0
73316;BME280;61545;53.726;-0.444;2024-02-04T10:26:19;1014.9;;;9.0;100.0
73316;BME280;61545;53.726;-0.444;2024-02-04T10:31:19;1014.8;;;9.1;100.0
73316;BME280;61545;53.726;-0.444;2024-02-04T10:36:19;1014.8;;;9.2;100.0
73316;BME280;61545;53.726;-0.444;2024-02-04T10:41:19;1014.9;;;9.3;100.0
73316;BME280;61545;53.726;-0.444;2024-02-04T10:46:19;1014.9;;;9.3;100.0
73316;BME280;61545;53.726;-0.444;2024-02-04T10:51:19;1014.8;;;9.3;100.0
73316;BME280;61545;53.726;-0.444;2024-02-04T10:56:21;1014.7;;;9.3;100.0
73316;BME280;61545;53.726;-0.444;2024-02-04T11:01:19;1014.8;;;9.4;100.0
73316;BME280;61545;53.726;-0.444;2024-02-04T11:06:19;1014.6;;;9.4;100.0
73316;BME280;61545;53.726;-0.444;2024-02-04T11:11:19;1014.6;;;9.4;100.0
73316;BME280;61545;53.726;-0.444;2024-02-04T11:16:22;1014.7;;;9.4;100.0
73316;BME280;61545;53.726;-0.444;2024-02-04T11:21:31;1014.7;;;9.4;100.0
73316;BME280;61545;53.726;-0.444;2024-02-04T11:26:19;1014.6;;;9.5;100.0
73316;BME280;61545;53.726;-0.444;2024-02-04T11:31:19;1014.4;;;9.4;100.0
73316;BME280;61545;53.726;-0.444;2024-02-04T11:36:23;1014.3;;;9.5;100.0
73316;BME280;61545;53.726;-0.444;2024-02-04T11:41:22;1014.3;;;9.4;100.0
73316;BME280;61545;53.726;-0.444;2024-02-04T11:46:19;1014.2;;;9.4;100.0
73316;BME280;61545;53.726;-0.444;2024-02-04T11:51:21;1014.0;;;9.4;100.0
73316;BME280;61545;53.726;-0.444;2024-02-04T11:56:19;1013.9;;;9.4;100.0
73316;BME280;61545;53.726;-0.444;2024-02-04T12:01:21;1013.8;;;9.4;100.0
73316;BME280;61545;53.726;-0.444;2024-02-04T12:06:19;1013.7;;;9.4;100.0
73316;BME280;61545;53.726;-0.444;2024-02-04T12:11:19;1013.6;;;9.4;100.0
73316;BME280;61545;53.726;-0.444;2024-02-04T12:16:19;1013.4;;;9.5;100.0
73316;BME280;61545;53.726;-0.444;2024-02-04T12:21:19;1013.4;;;9.5;100.0
73316;BME280;61545;53.726;-0.444;2024-02-04T12:26:19;1013.2;;;9.5;100.0
73316;BME280;61545;53.726;-0.444;2024-02-04T12:31:19;1013.1;;;9.6;100.0
73316;BME280;61545;53.726;-0.444;2024-02-04T12:36:19;1013.0;;;9.7;100.0
73316;BME280;61545;53.726;-0.444;2024-02-04T12:41:19;1013.0;;;9.7;100.0
73316;BME280;61545;53.726;-0.444;2024-02-04T12:46:19;1013.0;;;9.7;100.0
73316;BME280;61545;53.726;-0.444;2024-02-04T12:51:27;1012.9;;;9.8;100.0
73316;BME280;61545;53.726;-0.444;2024-02-04T12:56:19;1012.9;;;9.9;100.0
73316;BME280;61545;53.726;-0.444;2024-02-04T13:01:19;1012.8;;;9.9;100.0
73316;BME280;61545;53.726;-0.444;2024-02-04T13:06:19;1012.7;;;9.9;100.0
73316;BME280;61545;53.726;-0.444;2024-02-04T13:11:19;1012.7;;;unknown;100.0
73316;BME280;61545;53.726;-0.444;2024-02-04T13:16:19;1012.8;;;9.8;100.0
73316;BME280;61545;53.726;-0.444;2024-02-04T13:21:19;1012.7;;;9.9;100.0
73316;BME280;61545;53.726;-0.444;2024-02-04T13:26:19;1012.6;;;9.9;100.0
73316;BME280;61545;53.726;-0.444;2024-02-04T13:31:19;1012.4;;;unknown;100.0
73316;BME280;61545;53.726;-0.444;2024-02-04T13:36:19;1012.4;;;10.1;100.0
73316;BME280;61545;53.726;-0.444;2024-02-04T13:41:19;1012.3;;;10.2;100.0
73316;BME280;61545;53.726;-0.444;2024-02-04T13:46:19;1012.2;;;10.3;100.0
73316;BME280;61545;53.726;-0.444;2024-02-04T13:51:19;1012.1;;;10.4;100.0
73316;BME280;61545;53.726;-0.444;2024-02-04T13:56:20;1012.0;;;10.4;100.0
73316;BME280;61545;53.726;-0.444;2024-02-04T14:01:19;1012.0;;;10.4;100.0
73316;BME280;61545;53.726;-0.444;2024-02-04T14:06:19;1011.8;;;unknown;100.0
73316;BME280;61545;53.726;-0.444;2024-02-04T14:11:19;1011.7;;;10.4;100.0
73316;BME280;61545;53.726;-0.444;2024-02-04T14:16:19;1011.5;;;10.5;100.0
73316;BME280;61545;53.726;-0.444;2024-02-04T14:21:19;1011.6;;;10.6;100.0
73316;BME280;61545;53.726;-0.444;2024-02-04T14:26:21;1011.6;;;10.5;100.0
73316;BME280;61545;53.726;-0.444;2024-02-04T14:31:19;1011.7;;;10.6;100.0
73316;BME280;61545;53.726;-0.444;2024-02-04T14:36:19;1011.7;;;10.7;100.0
73316;BME280;61545;53.726;-0.444;2024-02-04T14:41:19;1011.6;;;10.7;100.0
73316;BME280;61545;53.726;-0.444;2024-02-04T14:46:19;1011.7;;;10.7;100.0
73316;BME280;61545;53.726;-0.444;2024-02-04T14:51:19;1011.7;;;10.6;100.0
73316;BME280;61545;53.726;-0.444;2024-02-04T14:56:19;1011.8;;;10.6;100.0
73316;BME280;61545;53.726;-0.444;2024-02-04T15:01:19;1011.7;;;10.6;100.0
73316;BME280;61545;53.726;-0.444;2024-02-04T15:06:19;1011.8;;;10.7;100.0
73316;BME280;61545;53.726;-0.444;2024-02-04T15:11:19;1011.8;;;10.7;100.0
73316;BME280;61545;53.726;-0.444;2024-02-04T15:16:19;1011.8;;;10.7;100.0
73316;BME280;61545;53.726;-0.444;2024-02-04T15:21:19;1011.8;;;10.7;100.0
73316;BME280;61545;53.726;-0.444;2024-02-04T15:26:19;1011.8;;;10.7;100.0
73316;BME280;61545;53.726;-0.444;2024-02-04T15:31:19;1011.8;;;10.7;100.0
73316;BME280;61545;53.726;-0.444;2024-02-04T15:36:19;1011.8;;;10.7;100.0
73316;BME280;61545;53.726;-0.444;2024-02-04T15:41:19;1011.9;;;10.7;100.0
73316;BME280;61545;53.726;-0.444;2024-02-04T15:46:19;1011.9;;;10.7;100.0
73316;BME280;61545;53.726;-0.444;2024-02-04T15:51:19;1011.9;;;10.8;100.0
73316;BME280;61545;53.726;-0.444;2024-02-04T15:56:19;1011.8;;;10.9;100.0
73316;BME280;61545;53.726;-0.444;2024-02-04T16:01:19;1011.8;;;10.9;100.0
73316;BME280;61545;53.726;-0.444;2024-02-04T16:06:19;1011.9;;;10.9;100.0
73316;BME280;61545;53.726;-0.444;2024-02-04T16:11:19;1011.9;;;10.9;100.0
73316;BME280;61545;53.726;-0.444;2024-02-04T16:16:20;1011.9;;;10.9;100.0
73316;BME280;61545;53.726;-0.444;2024-02-04T16:21:19;1011.9;;;11.0;100.0
73316;BME280;61545;53.726;-0.444;2024-02-04T16:26:19;1011.9;;;11.0;100.0
73316;BME280;61545;53.726;-0.444;2024-02-04T16:31:19;1011.9;;;11.0;100.0
73316;BME280;61545;53.726;-0.444;2024-02-04T16:36:19;1011.9;;;11.1;100.0
73316;BME280;61545;53.726;-0.444;2024-02-04T16:41:19;1012.0;;;11.1;100.0
73316;BME280;61545;53.726;-0.444;2024-02-04T16:46:19;1011.9;;;11.2;100.0
73316;BME280;61545;53.726;-0.444;2024-02-04T16:51:19;1012.1;;;11.2;100.0
73316;BME280;61545;53.726;-0.444;2024-02-04T16:56:19;1012.1;;;11.2;100.0
73316;BME280;61545;53.726;-0.444;2024-02-04T17:01:19;1012.1;;;unknown;100.0
73316;BME280;61545;53.726;-0.444;2024-02-04T17:06:19;1012.1;;;11.3;100.0
73316;BME280;61545;53.726;-0.444;2024-02-04T17:11:20;1012.2;;;11.4;100.0
73316;BME280;61545;53.726;-0.444;2024-02-04T17:16:22;1012.2;;;11.3;100.0
73316;BME280;61545;53.726;-0.444;2024-02-04T17:21:29;1012.2;;;11.3;100.0
73316;BME280;61545;53.726;-0.444;2024-02-04T17:26:20;1012.2;;;11.2;100.0
73316;BME280;61545;53.726;-0.444;2024-02-04T17:31:19;1012.2;;;11.2;100.0
73316;BME280;61545;53.726;-0.444;2024-02-04T17:36:19;1012.2;;;11.2;100.0
73316;BME280;61545;53.726;-0.444;2024-02-04T17:41:19;1012.2;;;11.2;100.0
73316;BME280;61545;53.726;-0.444;2024-02-04T17:46:19;1012.1;;;11.3;100.0
73316;BME280;61545;53.726;-0.444;2024-02-04T17:51:19;1012.1;;;11.3;100.0
73316;BME280;61545;53.726;-0.444;2024-02-04T17:56:19;1012.1;;;11.4;100.0
73316;BME280;61545;53.726;-0.444;2024-02-04T18:01:19;1011.9;;;11.4;100.0
73316;BME280;61545;53.726;-0.444;2024-02-04T18:06:19;1011.9;;;11.4;100.0
73316;BME280;61545;53.726;-0.444;2024-02-04T18:11:20;1012.0;;;11.4;100.0
73316;BME280;61545;53.726;-0.444;2024-02-04T18:16:19;1012.0;;;11.4;100.0
73316;BME280;61545;53.726;-0.444;2024-02-04T18:21:20;1012.1;;;11.4;100.0
73316;BME280;61545;53.726;-0.444;2024-02-04T18:26:20;1012.2;;;11.5;100.0
73316;BME280;61545;53.726;-0.444;2024-02-04T18:31:20;1012.2;;;11.5;100.0
73316;BME280;61545;53.726;-0.444;2024-02-04T18:36:20;1012.3;;;11.5;100.0
73316;BME280;61545;53.726;-0.444;2024-02-04T18:41:19;1012.4;;;11.5;100.0
73316;BME280;61545;53.726;-0.444;2024-02-04T18:46:19;1012.4;;;11.5;100.0
73316;BME280;61545;53.726;-0.444;2024-02-04T18:51:19;1012.4;;;11.5;100.0
73316;BME280;61545;53.726;-0.444;2024-02-04T18:56:19;1012.4;;;11.5;100.0
73316;BME280;61545;53.726;-0.444;2024-02-04T19:01:19;1012.6;;;11.5;100.0
73316;BME280;61545;53.726;-0.444;2024-02-04T19:06:24;1012.4;;;11.5;100.0
73316;BME280;61545;53.726;-0.444;2024-02-04T19:11:19;1012.4;;;11.5;100.0
73316;BME280;61545;53.726;-0.444;2024-02-04T19:16:19;1012.4;;;11.5;100.0
73316;BME280;61545;53.726;-0.444;2024-02-04T19:21:19;1012.4;;;11.4;100.0
73316;BME280;61545;53.726;-0.444;2024-02-04T19:26:26;1012.3;;;11.5;100.0
73316;BME280;61545;53.726;-0.444;2024-02-04T19:31:19;1012.3;;;11.5;100.0
73316;BME280;61545;53.726;-0.444;2024-02-04T19:36:20;1012.4;;;11.5;100.0
73316;BME280;61545;53.726;-0.444;2024-02-04T19:41:19;1012.6;;;11.5;100.0
73316;BME280;61545;53.726;-0.444;2024-02-04T19:46:19;1012.5;;;11.5;100.0
73316;BME280;61545;53.726;-0.444;2024-02-04T19:51:19;1012.5;;;11.4;100.0
73316;BME280;61545;53.726;-0.444;2024-02-04T19:56:19;1012.5;;;11.5;100.0
73316;BME280;61545;53.726;-0.444;2024-02-04T20:01:19;1012.5;;;11.4;100.0
73316;BME280;61545;53.726;-0.444;2024-02-04T20:06:19;1012.4;;;11.4;100.0
73316;BME280;61545;53.726;-0.444;2024-02-04T20:11:19;1012.3;;;11.5;100.0
73316;BME280;61545;53.726;-0.444;2024-02-04T20:16:19;1012.5;;;11.4;100.0
73316;BME280;61545;53.726;-0.444;2024-02-04T20:21:19;1012.5;;;11.4;100.0
73316;BME280;61545;53.726;-0.444;2024-02-04T20:26:19;1012.6;;;11.4;100.0
73316;BME280;61545;53.726;-0.444;2024-02-04T20:31:19;1012.6;;;11.4;100.0
73316;BME280;61545;53.726;-0.444;2024-02-04T20:36:19;1012.6;;;11.4;100.0
73316;BME280;61545;53.726;-0.444;2024-02-04T20:41:19;1012.7;;;11.4;100.0
73316;BME280;61545;53.726;-0.444;2024-02-04T20:46:19;1012.7;;;11.4;100.0
73316;BME280;61545;53.726;-0.444;2024-02-04T20:51:19;1012.7;;;11.3;100.0
73316;BME280;61545;53.726;-0.444;2024-02-04T20:56:19;1012.7;;;11.3;100.0
73316;BME280;61545;53.726;-0.444;2024-02-04T21:01:19;1012.6;;;11.3;100.0
73316;BME280;61545;53.726;-0.444;2024-02-04T21:06:20;1012.7;;;11.2;100.0
73316;BME280;61545;53.726;-0.444;2024-02-04T21:11:19;1012.6;;;11.2;100.0
73316;BME280;61545;53.726;-0.444;2024-02-04T21:16:19;1012.6;;;11.3;100.0
73316;BME280;61545;53.726;-0.444;2024-02-04T21:21:19;1012.6;;;11.3;100.0
73316;BME280;61545;53.726;-0.444;2024-02-04T21:26:19;1012.5;;;11.3;100.0
73316;BME280;61545;53.726;-0.444;2024-02-04T21:31:19;1012.5;;;11.2;100.0
73316;BME280;61545;53.726;-0.444;2024-02-04T21:36:19;1012.4;;;11.3;100.0
73316;BME280;61545;53.726;-0.444;2024-02-04T21:41:19;1012.6;;;11.2;100.0
73316;BME280;61545;53.726;-0.444;2024-02-04T21:46:19;1012.7;;;11.2;100.0
73316;BME280;61545;53.726;-0.444;2024-02-04T21:51:19;1012.8;;;11.2;100.0
73316;BME280;61545;53.726;-0.444;2024-02-04T21:56:19;1012.8;;;11.2;100.0
73316;BME280;61545;53.726;-0.444;2024-02-04T22:01:19;1012.9;;;11.2;100.0
73316;BME280;61545;53.726;-0.444;2024-02-04T22:06:19;1013.0;;;11.1;100.0
73316;BME280;61545;53.726;-0.444;2024-02-04T22:11:19;1013.0;;;11.1;100.0
73316;BME280;61545;53.726;-0.444;2024-02-04T22:16:19;1013.1;;;11.1;100.0
73316;BME280;61545;53.726;-0.444;2024-02-04T22:21:19;1013.2;;;11.1;100.0
73316;BME280;61545;53.726;-0.444;2024-02-04T22:26:19;1013.2;;;11.0;100.0
73316;BME280;61545;53.726;-0.444;2024-02-04T22:31:19;1013.3;;;11.0;100.0
73316;BME280;61545;53.726;-0.444;2024-02-04T22:36:19;1013.2;;;11.0;100.0
73316;BME280;61545;53.726;-0.444;2024-02-04T22:41:19;1013.3;;;11.0;100.0
73316;BME280;61545;53.726;-0.444;2024-02-04T22:46:19;1013.3;;;11.0;100.0
73316;BME280;61545;53.726;-0.444;2024-02-04T22:51:19;1013.3;;;10.9;100.0
73316;BME280;61545;53.726;-0.444;2024-02-04T22:56:19;1013.3;;;10.9;100.0
73316;BME280;61545;53.726;-0.444;2024-02-04T23:01:19;1013.3;;;10.9;100.0
73316;BME280;61545;53.726;-0.444;2024-02-04T23:06:19;1013.3;;;10.9;100.0
73316;BME280;61545;53.726;-0.444;2024-02-04T23:11:19;1013.3;;;10.8;100.0
73316;BME280;61545;53.726;-0.444;2024-02-04T23:16:19;1013.4;;;10.8;100.0
73316;BME280;61545;53.726;-0.444;2024-02-04T23:21:19;1013.5;;;10.7;100.0
73316;BME280;61545;53.726;-0.444;2024-02-04T23:26:19;1013.5;;;10.7;100.0
73316;BME280;61545;53.726;-0.444;2024-02-04T23:31:19;1013.4;;;10.7;100.0
73316;BME280;61545;53.726;-0.444;2024-02-04T23:36:19;1013.6;;;10.7;100.0
73316;BME280;61545;53.726;-0.444;2024-02-04T23:41:19;1013.5;;;10.6;100.0
73316;BME280;61545;53.726;-0.444;2024-02-04T23:46:19;1013.5;;;10.6;100.0
73316;BME280;61545;53.726;-0.444;2024-02-04T23:51:19;1013.5;;;10.5;100.0
73316;BME280;61545;53.726;-0.444;2024-02-04T23:56:19;1013.5;;;10.5;100.0
